sensor_id;sensor_type;location;lat;lon;timestamp;pressure;altitude;pressure_sealevel;temperature;humidity
60170;BME280;46042;49.444;6.862;2022-12-16T00:02:23;97665.34;;;-5.39;86.98
60170;BME280;46042;49.444;6.862;2022-12-16T00:04:50;97663.66;;;-5.40;85.97
60170;BME280;46042;49.444;6.862;2022-12-16T00:07:16;97658.56;;;-5.44;87.12
60170;BME280;46042;49.444;6.862;2022-12-16T00:09:43;97662.94;;;-5.49;86.23
60170;BME280;46042;49.444;6.862;2022-12-16T00:12:09;97661.28;;;-5.51;84.65
60170;BME280;46042;49.444;6.862;2022-12-16T00:14:36;97657.09;;;-5.57;85.56
60170;BME280;46042;49.444;6.862;2022-12-16T00:17:02;97660.53;;;-5.58;84.34
60170;BME280;46042;49.444;6.862;2022-12-16T00:19:29;97668.25;;;-5.60;85.03
60170;BME280;46042;49.444;6.862;2022-12-16T00:21:56;97669.91;;;-5.57;83.50
60170;BME280;46042;49.444;6.862;2022-12-16T00:24:23;97669.03;;;-5.54;84.23
60170;BME280;46042;49.444;6.862;2022-12-16T00:26:50;97665.63;;;-5.55;84.93
60170;BME280;46042;49.444;6.862;2022-12-16T00:29:18;97675.09;;;-5.60;85.03
60170;BME280;46042;49.444;6.862;2022-12-16T00:31:45;97676.88;;;-5.64;83.71
60170;BME280;46042;49.444;6.862;2022-12-16T00:34:14;97678.66;;;-5.69;83.73
60170;BME280;46042;49.444;6.862;2022-12-16T00:36:41;97667.63;;;-5.73;83.98
60170;BME280;46042;49.444;6.862;2022-12-16T00:39:09;97675.28;;;-5.71;83.58
60170;BME280;46042;49.444;6.862;2022-12-16T00:41:36;97668.53;;;-5.77;83.13
60170;BME280;46042;49.444;6.862;2022-12-16T00:44:03;97672.78;;;-5.76;84.02
60170;BME280;46042;49.444;6.862;2022-12-16T00:46:30;97675.38;;;-5.77;84.07
60170;BME280;46042;49.444;6.862;2022-12-16T00:48:57;97676.31;;;-5.81;83.53
60170;BME280;46042;49.444;6.862;2022-12-16T00:51:23;97674.63;;;-5.84;82.84
60170;BME280;46042;49.444;6.862;2022-12-16T00:53:50;97680.63;;;-5.85;81.43
60170;BME280;46042;49.444;6.862;2022-12-16T00:56:17;97677.31;;;-5.90;81.36
60170;BME280;46042;49.444;6.862;2022-12-16T00:58:43;97685.22;;;-6.04;82.57
60170;BME280;46042;49.444;6.862;2022-12-16T01:01:10;97683.53;;;-6.05;82.96
60170;BME280;46042;49.444;6.862;2022-12-16T01:03:37;97679.25;;;-6.06;83.81
60170;BME280;46042;49.444;6.862;2022-12-16T01:06:13;97682.69;;;-6.07;84.03
60170;BME280;46042;49.444;6.862;2022-12-16T01:08:41;97679.25;;;-6.05;84.84
60170;BME280;46042;49.444;6.862;2022-12-16T01:11:18;97688.56;;;-6.01;83.44
60170;BME280;46042;49.444;6.862;2022-12-16T01:13:48;97697.94;;;-6.00;84.08
60170;BME280;46042;49.444;6.862;2022-12-16T01:16:17;97694.59;;;-6.02;83.25
60170;BME280;46042;49.444;6.862;2022-12-16T01:18:44;97698.91;;;-6.04;84.09
60170;BME280;46042;49.444;6.862;2022-12-16T01:21:13;97702.34;;;-6.06;85.42
60170;BME280;46042;49.444;6.862;2022-12-16T01:23:40;97703.22;;;-6.07;84.88
60170;BME280;46042;49.444;6.862;2022-12-16T01:26:08;97704.97;;;-6.11;85.22
60170;BME280;46042;49.444;6.862;2022-12-16T01:28:39;97722.91;;;-6.11;85.67
60170;BME280;46042;49.444;6.862;2022-12-16T01:31:06;97717.84;;;-6.14;85.81
60170;BME280;46042;49.444;6.862;2022-12-16T01:33:33;97723.00;;;-6.19;84.44
60170;BME280;46042;49.444;6.862;2022-12-16T01:36:02;97720.50;;;-6.22;85.78
60170;BME280;46042;49.444;6.862;2022-12-16T01:38:30;97725.69;;;-6.26;85.27
60170;BME280;46042;49.444;6.862;2022-12-16T01:40:57;97730.00;;;-6.30;85.59
60170;BME280;46042;49.444;6.862;2022-12-16T01:43:29;97730.94;;;-6.36;85.00
60170;BME280;46042;49.444;6.862;2022-12-16T01:49:01;97741.28;;;-6.44;85.90
60170;BME280;46042;49.444;6.862;2022-12-16T01:51:37;97743.91;;;-6.48;85.64
60170;BME280;46042;49.444;6.862;2022-12-16T01:54:17;97738.81;;;-6.50;85.67
60170;BME280;46042;49.444;6.862;2022-12-16T01:56:50;97735.44;;;-6.55;86.42
60170;BME280;46042;49.444;6.862;2022-12-16T01:59:21;97748.28;;;-6.58;86.51
60170;BME280;46042;49.444;6.862;2022-12-16T02:01:49;97749.16;;;-6.59;87.26
60170;BME280;46042;49.444;6.862;2022-12-16T02:04:16;97738.06;;;-6.61;87.15
60170;BME280;46042;49.444;6.862;2022-12-16T02:06:42;97741.53;;;-6.65;87.54
60170;BME280;46042;49.444;6.862;2022-12-16T02:09:10;97739.91;;;-6.73;86.57
60170;BME280;46042;49.444;6.862;2022-12-16T02:17:39;97741.75;;;-6.87;87.08
60170;BME280;46042;49.444;6.862;2022-12-16T02:20:18;97734.97;;;-6.90;88.05
60170;BME280;46042;49.444;6.862;2022-12-16T02:26:09;97733.31;;;-6.95;88.66
60170;BME280;46042;49.444;6.862;2022-12-16T02:31:54;97748.75;;;-7.05;89.85
60170;BME280;46042;49.444;6.862;2022-12-16T02:34:48;97747.09;;;-7.09;89.38
60170;BME280;46042;49.444;6.862;2022-12-16T02:37:48;97746.28;;;-7.16;90.68
60170;BME280;46042;49.444;6.862;2022-12-16T02:40:26;97744.63;;;-7.20;91.21
60170;BME280;46042;49.444;6.862;2022-12-16T02:42:59;97743.84;;;-7.28;91.81
60170;BME280;46042;49.444;6.862;2022-12-16T02:45:30;97751.63;;;-7.36;89.82
60170;BME280;46042;49.444;6.862;2022-12-16T02:47:57;97752.50;;;-7.45;89.92
60170;BME280;46042;49.444;6.862;2022-12-16T02:50:44;97759.38;;;-7.48;90.98
60170;BME280;46042;49.444;6.862;2022-12-16T02:53:12;97755.16;;;-7.54;89.15
60170;BME280;46042;49.444;6.862;2022-12-16T02:58:45;97757.75;;;-7.60;89.94
60170;BME280;46042;49.444;6.862;2022-12-16T03:01:38;97749.25;;;-7.64;90.51
60170;BME280;46042;49.444;6.862;2022-12-16T03:06:44;97761.25;;;-7.74;91.08
60170;BME280;46042;49.444;6.862;2022-12-16T03:09:14;97757.88;;;-7.77;91.02
60170;BME280;46042;49.444;6.862;2022-12-16T03:11:44;97765.56;;;-7.80;90.94
60170;BME280;46042;49.444;6.862;2022-12-16T03:14:16;97772.41;;;-7.84;91.31
60170;BME280;46042;49.444;6.862;2022-12-16T03:16:44;97773.25;;;-7.83;91.46
60170;BME280;46042;49.444;6.862;2022-12-16T03:19:13;97769.00;;;-7.84;91.88
60170;BME280;46042;49.444;6.862;2022-12-16T03:21:48;97774.13;;;-7.88;91.69
60170;BME280;46042;49.444;6.862;2022-12-16T03:24:17;97774.13;;;-7.91;92.00
60170;BME280;46042;49.444;6.862;2022-12-16T03:26:55;97779.28;;;-7.97;92.75
60170;BME280;46042;49.444;6.862;2022-12-16T03:29:44;97781.00;;;-7.96;93.20
60170;BME280;46042;49.444;6.862;2022-12-16T03:35:29;97799.78;;;-8.06;93.64
60170;BME280;46042;49.444;6.862;2022-12-16T03:38:00;97789.59;;;-8.12;93.25
60170;BME280;46042;49.444;6.862;2022-12-16T03:40:29;97790.44;;;-8.15;93.09
60170;BME280;46042;49.444;6.862;2022-12-16T03:42:59;97783.66;;;-8.18;93.16
60170;BME280;46042;49.444;6.862;2022-12-16T03:45:31;97788.78;;;-8.18;93.36
60170;BME280;46042;49.444;6.862;2022-12-16T03:48:02;97788.78;;;-8.21;92.04
60170;BME280;46042;49.444;6.862;2022-12-16T03:50:31;97795.63;;;-8.26;92.48
60170;BME280;46042;49.444;6.862;2022-12-16T03:52:59;97795.63;;;-8.27;94.05
60170;BME280;46042;49.444;6.862;2022-12-16T03:55:25;97800.75;;;-8.29;94.26
60170;BME280;46042;49.444;6.862;2022-12-16T03:57:52;97789.69;;;-8.31;93.80
60170;BME280;46042;49.444;6.862;2022-12-16T04:00:19;97795.66;;;-8.32;93.34
60170;BME280;46042;49.444;6.862;2022-12-16T04:02:46;97803.31;;;-8.34;94.69
60170;BME280;46042;49.444;6.862;2022-12-16T04:05:13;97808.41;;;-8.34;94.45
60170;BME280;46042;49.444;6.862;2022-12-16T04:07:39;97808.44;;;-8.37;94.97
60170;BME280;46042;49.444;6.862;2022-12-16T04:10:07;97817.78;;;-8.34;95.03
60170;BME280;46042;49.444;6.862;2022-12-16T04:12:34;97816.09;;;-8.35;94.72
60170;BME280;46042;49.444;6.862;2022-12-16T04:15:19;97811.84;;;-8.36;94.84
60170;BME280;46042;49.444;6.862;2022-12-16T04:18:15;97823.78;;;-8.38;95.13
60170;BME280;46042;49.444;6.862;2022-12-16T04:21:03;97820.34;;;-8.40;95.85
60170;BME280;46042;49.444;6.862;2022-12-16T04:23:50;97819.53;;;-8.41;95.63
60170;BME280;46042;49.444;6.862;2022-12-16T04:26:37;97829.72;;;-8.43;95.50
60170;BME280;46042;49.444;6.862;2022-12-16T04:29:22;97828.88;;;-8.45;95.73
60170;BME280;46042;49.444;6.862;2022-12-16T04:31:50;97838.31;;;-8.50;95.81
60170;BME280;46042;49.444;6.862;2022-12-16T04:34:17;97842.56;;;-8.52;95.76
60170;BME280;46042;49.444;6.862;2022-12-16T04:37:00;97839.09;;;-8.49;96.27
60170;BME280;46042;49.444;6.862;2022-12-16T04:39:46;97850.22;;;-8.52;96.69
60170;BME280;46042;49.444;6.862;2022-12-16T04:42:31;97847.69;;;-8.55;98.17
60170;BME280;46042;49.444;6.862;2022-12-16T04:45:17;97854.47;;;-8.52;98.83
60170;BME280;46042;49.444;6.862;2022-12-16T04:48:02;97862.94;;;-8.46;98.97
60170;BME280;46042;49.444;6.862;2022-12-16T04:50:48;97857.84;;;-8.46;98.01
60170;BME280;46042;49.444;6.862;2022-12-16T04:53:33;97863.78;;;-8.44;98.91
60170;BME280;46042;49.444;6.862;2022-12-16T04:56:18;97869.78;;;-8.46;98.41
60170;BME280;46042;49.444;6.862;2022-12-16T04:59:04;97874.88;;;-8.48;98.05
60170;BME280;46042;49.444;6.862;2022-12-16T05:01:49;97871.53;;;-8.53;97.99
60170;BME280;46042;49.444;6.862;2022-12-16T05:04:34;97876.63;;;-8.53;98.38
60170;BME280;46042;49.444;6.862;2022-12-16T05:07:19;97880.06;;;-8.62;99.63
60170;BME280;46042;49.444;6.862;2022-12-16T05:10:05;97879.19;;;-8.61;99.61
60170;BME280;46042;49.444;6.862;2022-12-16T05:12:54;97881.75;;;-8.64;99.14
60170;BME280;46042;49.444;6.862;2022-12-16T05:15:40;97884.31;;;-8.64;99.18
60170;BME280;46042;49.444;6.862;2022-12-16T05:18:25;97881.75;;;-8.65;98.79
60170;BME280;46042;49.444;6.862;2022-12-16T05:21:11;97886.84;;;-8.65;98.47
60170;BME280;46042;49.444;6.862;2022-12-16T05:23:56;97895.38;;;-8.71;98.32
60170;BME280;46042;49.444;6.862;2022-12-16T05:26:41;97903.03;;;-8.73;98.31
60170;BME280;46042;49.444;6.862;2022-12-16T05:29:26;97900.47;;;-8.77;98.61
60170;BME280;46042;49.444;6.862;2022-12-16T05:32:12;97907.28;;;-8.81;98.42
60170;BME280;46042;49.444;6.862;2022-12-16T05:34:57;97909.00;;;-8.86;98.46
60170;BME280;46042;49.444;6.862;2022-12-16T05:37:42;97924.28;;;-8.92;99.41
60170;BME280;46042;49.444;6.862;2022-12-16T05:40:27;97918.34;;;-8.97;99.18
60170;BME280;46042;49.444;6.862;2022-12-16T05:43:12;97936.22;;;-8.97;98.78
60170;BME280;46042;49.444;6.862;2022-12-16T05:45:58;97943.84;;;-8.99;98.39
60170;BME280;46042;49.444;6.862;2022-12-16T05:48:43;97945.53;;;-9.01;98.75
60170;BME280;46042;49.444;6.862;2022-12-16T05:51:29;97951.50;;;-9.02;99.14
60170;BME280;46042;49.444;6.862;2022-12-16T05:54:14;97954.91;;;-9.03;99.63
60170;BME280;46042;49.444;6.862;2022-12-16T05:56:59;97956.63;;;-9.07;99.29
60170;BME280;46042;49.444;6.862;2022-12-16T05:59:44;97958.28;;;-9.12;99.06
60170;BME280;46042;49.444;6.862;2022-12-16T06:02:29;97957.44;;;-9.17;100.00
60170;BME280;46042;49.444;6.862;2022-12-16T06:05:14;97954.91;;;-9.16;99.55
60170;BME280;46042;49.444;6.862;2022-12-16T06:08:00;97956.59;;;-9.15;99.60
60170;BME280;46042;49.444;6.862;2022-12-16T06:10:45;97971.88;;;-9.24;99.76
60170;BME280;46042;49.444;6.862;2022-12-16T06:13:30;97972.75;;;-9.23;100.00
60170;BME280;46042;49.444;6.862;2022-12-16T06:16:15;97977.00;;;-9.22;98.89
60170;BME280;46042;49.444;6.862;2022-12-16T06:19:00;97978.69;;;-9.29;98.72
60170;BME280;46042;49.444;6.862;2022-12-16T06:21:46;97988.88;;;-9.29;98.22
60170;BME280;46042;49.444;6.862;2022-12-16T06:24:31;97987.16;;;-9.38;99.06
60170;BME280;46042;49.444;6.862;2022-12-16T06:27:16;97995.63;;;-9.37;99.40
60170;BME280;46042;49.444;6.862;2022-12-16T06:30:02;97999.06;;;-9.40;100.00
60170;BME280;46042;49.444;6.862;2022-12-16T06:32:47;98001.59;;;-9.40;100.00
60170;BME280;46042;49.444;6.862;2022-12-16T06:35:32;97999.88;;;-9.39;100.00
60170;BME280;46042;49.444;6.862;2022-12-16T06:38:17;98001.56;;;-9.45;100.00
60170;BME280;46042;49.444;6.862;2022-12-16T06:41:02;98021.13;;;-9.50;100.00
60170;BME280;46042;49.444;6.862;2022-12-16T06:43:47;98014.31;;;-9.48;100.00
60170;BME280;46042;49.444;6.862;2022-12-16T06:46:33;98023.66;;;-9.50;100.00
60170;BME280;46042;49.444;6.862;2022-12-16T06:49:18;98024.47;;;-9.54;99.09
60170;BME280;46042;49.444;6.862;2022-12-16T06:52:03;98025.34;;;-9.57;99.11
60170;BME280;46042;49.444;6.862;2022-12-16T06:54:48;98033.81;;;-9.62;99.42
60170;BME280;46042;49.444;6.862;2022-12-16T06:57:33;98039.75;;;-9.63;99.56
60170;BME280;46042;49.444;6.862;2022-12-16T07:00:18;98044.81;;;-9.65;99.21
60170;BME280;46042;49.444;6.862;2022-12-16T07:03:04;98044.00;;;-9.65;99.12
60170;BME280;46042;49.444;6.862;2022-12-16T07:05:52;98054.97;;;-9.73;99.26
60170;BME280;46042;49.444;6.862;2022-12-16T07:08:37;98056.66;;;-9.78;99.64
60170;BME280;46042;49.444;6.862;2022-12-16T07:11:39;98054.09;;;-9.76;99.29
60170;BME280;46042;49.444;6.862;2022-12-16T07:14:24;98054.09;;;-9.78;99.10
60170;BME280;46042;49.444;6.862;2022-12-16T07:17:09;98049.81;;;-9.87;100.00
60170;BME280;46042;49.444;6.862;2022-12-16T07:19:55;98051.50;;;-9.87;100.00
60170;BME280;46042;49.444;6.862;2022-12-16T07:22:47;98056.59;;;-9.86;100.00
60170;BME280;46042;49.444;6.862;2022-12-16T07:25:42;98065.94;;;-9.86;100.00
60170;BME280;46042;49.444;6.862;2022-12-16T07:28:28;98070.16;;;-9.88;100.00
60170;BME280;46042;49.444;6.862;2022-12-16T07:31:13;98064.25;;;-9.89;99.67
60170;BME280;46042;49.444;6.862;2022-12-16T07:33:58;98072.66;;;-9.97;99.78
60170;BME280;46042;49.444;6.862;2022-12-16T07:36:43;98082.88;;;-9.97;100.00
60170;BME280;46042;49.444;6.862;2022-12-16T07:39:28;98087.09;;;-9.95;100.00
60170;BME280;46042;49.444;6.862;2022-12-16T07:42:19;98100.72;;;-9.94;100.00
60170;BME280;46042;49.444;6.862;2022-12-16T07:45:05;98102.38;;;-10.00;100.00
60170;BME280;46042;49.444;6.862;2022-12-16T07:47:51;98106.66;;;-9.94;100.00
60170;BME280;46042;49.444;6.862;2022-12-16T07:50:37;98115.13;;;-9.95;100.00
60170;BME280;46042;49.444;6.862;2022-12-16T07:53:22;98116.88;;;-9.92;100.00
60170;BME280;46042;49.444;6.862;2022-12-16T07:56:09;98111.81;;;-9.88;100.00
60170;BME280;46042;49.444;6.862;2022-12-16T07:58:54;98122.88;;;-9.82;100.00
60170;BME280;46042;49.444;6.862;2022-12-16T08:01:40;98123.75;;;-9.80;100.00
60170;BME280;46042;49.444;6.862;2022-12-16T08:04:25;98125.44;;;-9.82;100.00
60170;BME280;46042;49.444;6.862;2022-12-16T08:07:10;98129.72;;;-9.80;100.00
60170;BME280;46042;49.444;6.862;2022-12-16T08:09:56;98136.50;;;-9.77;100.00
60170;BME280;46042;49.444;6.862;2022-12-16T08:12:41;98135.69;;;-9.75;100.00
60170;BME280;46042;49.444;6.862;2022-12-16T08:15:26;98148.47;;;-9.73;100.00
60170;BME280;46042;49.444;6.862;2022-12-16T08:18:12;98151.88;;;-9.71;100.00
60170;BME280;46042;49.444;6.862;2022-12-16T08:20:57;98154.41;;;-9.71;100.00
60170;BME280;46042;49.444;6.862;2022-12-16T08:23:42;98159.50;;;-9.74;100.00
60170;BME280;46042;49.444;6.862;2022-12-16T08:26:27;98162.94;;;-9.69;100.00
60170;BME280;46042;49.444;6.862;2022-12-16T08:29:13;98166.28;;;-9.72;100.00
60170;BME280;46042;49.444;6.862;2022-12-16T08:32:10;98163.78;;;-9.70;100.00
60170;BME280;46042;49.444;6.862;2022-12-16T08:34:56;98162.09;;;-9.65;100.00
60170;BME280;46042;49.444;6.862;2022-12-16T08:37:41;98160.44;;;-9.61;100.00
60170;BME280;46042;49.444;6.862;2022-12-16T08:40:26;98168.97;;;-9.54;100.00
60170;BME280;46042;49.444;6.862;2022-12-16T08:43:11;98175.81;;;-9.49;100.00
60170;BME280;46042;49.444;6.862;2022-12-16T08:45:57;98170.75;;;-9.46;100.00
60170;BME280;46042;49.444;6.862;2022-12-16T08:48:42;98183.53;;;-9.41;100.00
60170;BME280;46042;49.444;6.862;2022-12-16T08:51:28;98183.59;;;-9.29;100.00
60170;BME280;46042;49.444;6.862;2022-12-16T08:54:14;98185.34;;;-9.17;100.00
60170;BME280;46042;49.444;6.862;2022-12-16T08:57:00;98191.38;;;-9.11;100.00
60170;BME280;46042;49.444;6.862;2022-12-16T08:59:44;98193.00;;;-9.21;100.00
60170;BME280;46042;49.444;6.862;2022-12-16T09:02:30;98200.66;;;-9.21;100.00
60170;BME280;46042;49.444;6.862;2022-12-16T09:05:16;98195.59;;;-9.15;100.00
60170;BME280;46042;49.444;6.862;2022-12-16T09:08:03;98199.03;;;-9.11;100.00
60170;BME280;46042;49.444;6.862;2022-12-16T09:10:48;98199.03;;;-9.05;100.00
60170;BME280;46042;49.444;6.862;2022-12-16T09:13:33;98215.22;;;-9.05;100.00
60170;BME280;46042;49.444;6.862;2022-12-16T09:16:19;98208.44;;;-9.03;100.00
60170;BME280;46042;49.444;6.862;2022-12-16T09:19:05;98210.97;;;-9.01;100.00
60170;BME280;46042;49.444;6.862;2022-12-16T09:21:50;98217.78;;;-8.98;100.00
60170;BME280;46042;49.444;6.862;2022-12-16T09:24:35;98223.78;;;-8.92;100.00
60170;BME280;46042;49.444;6.862;2022-12-16T09:27:21;98220.47;;;-8.81;100.00
60170;BME280;46042;49.444;6.862;2022-12-16T09:30:07;98228.16;;;-8.72;100.00
60170;BME280;46042;49.444;6.862;2022-12-16T09:32:52;98219.66;;;-8.66;100.00
60170;BME280;46042;49.444;6.862;2022-12-16T09:35:37;98228.22;;;-8.57;100.00
60170;BME280;46042;49.444;6.862;2022-12-16T09:38:22;98229.06;;;-8.48;100.00
60170;BME280;46042;49.444;6.862;2022-12-16T09:50:23;98240.28;;;-8.04;100.00
60170;BME280;46042;49.444;6.862;2022-12-16T09:53:14;98240.28;;;-7.98;100.00
60170;BME280;46042;49.444;6.862;2022-12-16T09:56:04;98243.72;;;-7.87;100.00
60170;BME280;46042;49.444;6.862;2022-12-16T09:58:59;98254.81;;;-7.72;100.00
60170;BME280;46042;49.444;6.862;2022-12-16T10:02:11;98246.31;;;-7.54;100.00
60170;BME280;46042;49.444;6.862;2022-12-16T10:04:58;98256.53;;;-7.37;100.00
60170;BME280;46042;49.444;6.862;2022-12-16T10:07:52;98248.88;;;-7.34;100.00
60170;BME280;46042;49.444;6.862;2022-12-16T10:11:17;98238.63;;;-7.32;100.00
60170;BME280;46042;49.444;6.862;2022-12-16T10:14:22;98243.75;;;-7.18;100.00
60170;BME280;46042;49.444;6.862;2022-12-16T10:17:21;98244.59;;;-7.07;100.00
60170;BME280;46042;49.444;6.862;2022-12-16T10:20:14;98240.31;;;-7.00;100.00
60170;BME280;46042;49.444;6.862;2022-12-16T10:23:14;98247.97;;;-6.88;100.00
60170;BME280;46042;49.444;6.862;2022-12-16T10:26:10;98253.91;;;-6.72;100.00
60170;BME280;46042;49.444;6.862;2022-12-16T10:29:24;98249.63;;;-6.65;100.00
60170;BME280;46042;49.444;6.862;2022-12-16T10:32:24;98245.25;;;-6.38;100.00
60170;BME280;46042;49.444;6.862;2022-12-16T10:35:55;98250.28;;;-6.11;100.00
60170;BME280;46042;49.444;6.862;2022-12-16T10:41:35;98254.34;;;-5.81;99.62
60170;BME280;46042;49.444;6.862;2022-12-16T10:44:32;98249.97;;;-5.65;98.53
60170;BME280;46042;49.444;6.862;2022-12-16T10:47:21;98252.50;;;-5.63;98.45
60170;BME280;46042;49.444;6.862;2022-12-16T10:50:11;98259.34;;;-5.62;99.03
60170;BME280;46042;49.444;6.862;2022-12-16T10:53:02;98257.63;;;-5.60;98.90
60170;BME280;46042;49.444;6.862;2022-12-16T10:58:54;98257.28;;;-5.15;95.77
60170;BME280;46042;49.444;6.862;2022-12-16T11:01:39;98261.47;;;-5.06;95.44
60170;BME280;46042;49.444;6.862;2022-12-16T11:04:31;98259.66;;;-4.93;95.64
60170;BME280;46042;49.444;6.862;2022-12-16T11:07:35;98266.28;;;-4.71;94.82
60170;BME280;46042;49.444;6.862;2022-12-16T11:10:51;98260.16;;;-4.57;94.93
60170;BME280;46042;49.444;6.862;2022-12-16T11:13:36;98260.03;;;-4.46;94.80
60170;BME280;46042;49.444;6.862;2022-12-16T11:16:38;98259.75;;;-4.24;93.08
60170;BME280;46042;49.444;6.862;2022-12-16T11:19:25;98257.97;;;-4.18;92.82
60170;BME280;46042;49.444;6.862;2022-12-16T11:22:16;98251.13;;;-4.17;92.67
60170;BME280;46042;49.444;6.862;2022-12-16T11:25:14;98257.16;;;-4.20;93.73
60170;BME280;46042;49.444;6.862;2022-12-16T11:30:51;98256.38;;;-3.64;90.54
60170;BME280;46042;49.444;6.862;2022-12-16T11:33:38;98262.06;;;-3.43;88.51
60170;BME280;46042;49.444;6.862;2022-12-16T11:36:24;98258.47;;;-3.31;88.60
60170;BME280;46042;49.444;6.862;2022-12-16T11:39:16;98261.00;;;-3.30;89.24
60170;BME280;46042;49.444;6.862;2022-12-16T11:42:03;98264.47;;;-3.31;89.39
60170;BME280;46042;49.444;6.862;2022-12-16T11:44:57;98262.63;;;-3.22;88.82
60170;BME280;46042;49.444;6.862;2022-12-16T11:47:47;98258.66;;;-2.90;87.46
60170;BME280;46042;49.444;6.862;2022-12-16T11:50:37;98263.44;;;-2.68;87.03
60170;BME280;46042;49.444;6.862;2022-12-16T11:56:16;98260.16;;;-1.90;83.34
60170;BME280;46042;49.444;6.862;2022-12-16T12:02:41;98254.75;;;-0.70;86.13
60170;BME280;46042;49.444;6.862;2022-12-16T12:11:52;98261.94;;;-0.17;72.60
60170;BME280;46042;49.444;6.862;2022-12-16T12:14:47;98263.78;;;0.09;74.82
60170;BME280;46042;49.444;6.862;2022-12-16T12:17:39;98260.72;;;0.53;75.70
60170;BME280;46042;49.444;6.862;2022-12-16T12:20:46;98271.22;;;0.49;68.36
60170;BME280;46042;49.444;6.862;2022-12-16T12:26:31;98273.75;;;0.52;68.28
60170;BME280;46042;49.444;6.862;2022-12-16T12:38:46;98289.31;;;0.79;67.40
60170;BME280;46042;49.444;6.862;2022-12-16T12:41:55;98287.03;;;0.69;67.09
60170;BME280;46042;49.444;6.862;2022-12-16T12:47:57;98281.13;;;1.44;65.15
60170;BME280;46042;49.444;6.862;2022-12-16T12:50:57;98282.78;;;1.46;65.33
60170;BME280;46042;49.444;6.862;2022-12-16T12:54:17;98292.34;;;1.46;65.11
60170;BME280;46042;49.444;6.862;2022-12-16T12:57:05;98288.88;;;1.70;64.62
60170;BME280;46042;49.444;6.862;2022-12-16T13:05:58;98286.75;;;2.06;64.42
60170;BME280;46042;49.444;6.862;2022-12-16T13:11:32;98299.91;;;2.25;63.86
60170;BME280;46042;49.444;6.862;2022-12-16T13:17:17;98304.91;;;2.07;63.63
60170;BME280;46042;49.444;6.862;2022-12-16T13:20:31;98309.00;;;1.89;65.06
60170;BME280;46042;49.444;6.862;2022-12-16T13:23:37;98308.38;;;1.82;63.18
60170;BME280;46042;49.444;6.862;2022-12-16T13:26:24;98300.81;;;2.00;64.69
60170;BME280;46042;49.444;6.862;2022-12-16T13:29:22;98313.34;;;1.89;62.58
60170;BME280;46042;49.444;6.862;2022-12-16T13:41:00;98320.59;;;2.28;63.82
60170;BME280;46042;49.444;6.862;2022-12-16T13:43:50;98323.19;;;2.28;62.92
60170;BME280;46042;49.444;6.862;2022-12-16T13:55:39;98338.50;;;2.36;63.53
60170;BME280;46042;49.444;6.862;2022-12-16T13:58:39;98337.63;;;2.59;65.56
60170;BME280;46042;49.444;6.862;2022-12-16T14:01:36;98341.56;;;2.69;65.65
60170;BME280;46042;49.444;6.862;2022-12-16T14:04:25;98349.38;;;2.69;64.59
60170;BME280;46042;49.444;6.862;2022-12-16T14:07:16;98351.91;;;2.71;64.22
60170;BME280;46042;49.444;6.862;2022-12-16T14:10:03;98355.56;;;2.43;62.03
60170;BME280;46042;49.444;6.862;2022-12-16T14:13:00;98365.03;;;2.44;62.39
60170;BME280;46042;49.444;6.862;2022-12-16T14:16:09;98369.91;;;2.53;64.55
60170;BME280;46042;49.444;6.862;2022-12-16T14:25:19;98370.91;;;1.76;63.14
60170;BME280;46042;49.444;6.862;2022-12-16T14:31:19;98383.63;;;1.05;66.40
60170;BME280;46042;49.444;6.862;2022-12-16T14:34:34;98395.72;;;0.76;69.05
60170;BME280;46042;49.444;6.862;2022-12-16T14:37:34;98397.09;;;0.57;69.06
60170;BME280;46042;49.444;6.862;2022-12-16T14:40:30;98410.56;;;0.40;68.70
60170;BME280;46042;49.444;6.862;2022-12-16T14:43:24;98406.66;;;0.57;66.87
60170;BME280;46042;49.444;6.862;2022-12-16T14:46:30;98416.69;;;0.98;65.48
60170;BME280;46042;49.444;6.862;2022-12-16T14:49:26;98417.09;;;1.41;64.01
60170;BME280;46042;49.444;6.862;2022-12-16T14:52:22;98426.50;;;1.70;62.36
60170;BME280;46042;49.444;6.862;2022-12-16T14:55:38;98431.19;;;1.86;61.87
60170;BME280;46042;49.444;6.862;2022-12-16T14:58:23;98438.28;;;1.54;62.19
60170;BME280;46042;49.444;6.862;2022-12-16T15:01:14;98437.97;;;0.79;63.43
60170;BME280;46042;49.444;6.862;2022-12-16T15:04:05;98441.97;;;0.30;65.61
60170;BME280;46042;49.444;6.862;2022-12-16T15:06:54;98452.16;;;0.03;66.62
60170;BME280;46042;49.444;6.862;2022-12-16T15:09:46;98456.19;;;-0.20;67.62
60170;BME280;46042;49.444;6.862;2022-12-16T15:12:38;98454.19;;;-0.44;68.30
60170;BME280;46042;49.444;6.862;2022-12-16T15:15:34;98464.06;;;-0.61;68.91
60170;BME280;46042;49.444;6.862;2022-12-16T15:21:17;98469.88;;;-0.89;70.73
60170;BME280;46042;49.444;6.862;2022-12-16T15:24:29;98481.38;;;-1.03;71.33
60170;BME280;46042;49.444;6.862;2022-12-16T15:33:39;98503.59;;;-1.38;73.52
60170;BME280;46042;49.444;6.862;2022-12-16T15:36:30;98507.28;;;-1.50;74.51
60170;BME280;46042;49.444;6.862;2022-12-16T15:39:19;98509.19;;;-1.60;76.34
60170;BME280;46042;49.444;6.862;2022-12-16T15:42:20;98505.16;;;-1.75;76.24
60170;BME280;46042;49.444;6.862;2022-12-16T15:48:15;98529.75;;;-2.02;79.00
60170;BME280;46042;49.444;6.862;2022-12-16T15:51:02;98523.03;;;-2.14;81.40
60170;BME280;46042;49.444;6.862;2022-12-16T15:54:00;98532.63;;;-2.21;82.52
60170;BME280;46042;49.444;6.862;2022-12-16T15:56:47;98533.66;;;-2.33;83.69
60170;BME280;46042;49.444;6.862;2022-12-16T15:59:34;98538.09;;;-2.43;83.98
60170;BME280;46042;49.444;6.862;2022-12-16T16:02:20;98546.91;;;-2.58;84.23
60170;BME280;46042;49.444;6.862;2022-12-16T16:05:21;98569.41;;;-2.69;85.29
60170;BME280;46042;49.444;6.862;2022-12-16T16:08:10;98564.41;;;-2.80;85.22
60170;BME280;46042;49.444;6.862;2022-12-16T16:10:55;98570.59;;;-2.93;85.80
60170;BME280;46042;49.444;6.862;2022-12-16T16:13:40;98574.19;;;-3.07;86.21
60170;BME280;46042;49.444;6.862;2022-12-16T16:16:34;98582.88;;;-3.16;86.09
60170;BME280;46042;49.444;6.862;2022-12-16T16:19:22;98590.72;;;-3.23;86.87
60170;BME280;46042;49.444;6.862;2022-12-16T16:22:12;98588.16;;;-3.28;87.70
60170;BME280;46042;49.444;6.862;2022-12-16T16:24:57;98595.91;;;-3.30;88.04
60170;BME280;46042;49.444;6.862;2022-12-16T16:27:43;98607.13;;;-3.34;87.74
60170;BME280;46042;49.444;6.862;2022-12-16T16:30:28;98602.00;;;-3.38;88.03
60170;BME280;46042;49.444;6.862;2022-12-16T16:33:14;98607.22;;;-3.45;88.13